sensor_id;sensor_type;location;lat;lon;timestamp;temperature;humidity
37646;DHT22;23489;49.600;6.138;2023-03-01T00:01:26;-0.20;99.90
37646;DHT22;23489;49.600;6.138;2023-03-01T00:03:53;-0.20;99.90
37646;DHT22;23489;49.600;6.138;2023-03-01T00:06:19;-0.20;99.90
37646;DHT22;23489;49.600;6.138;2023-03-01T00:08:45;-0.20;99.90
37646;DHT22;23489;49.600;6.138;2023-03-01T00:13:36;-0.30;99.90
37646;DHT22;23489;49.600;6.138;2023-03-01T00:16:07;-0.20;99.90
37646;DHT22;23489;49.600;6.138;2023-03-01T00:18:33;-0.20;99.90
37646;DHT22;23489;49.600;6.138;2023-03-01T00:20:59;-0.20;99.90
37646;DHT22;23489;49.600;6.138;2023-03-01T00:23:25;-0.30;99.90
37646;DHT22;23489;49.600;6.138;2023-03-01T00:25:51;-0.30;99.90
37646;DHT22;23489;49.600;6.138;2023-03-01T00:28:17;-0.30;99.90
37646;DHT22;23489;49.600;6.138;2023-03-01T00:30:43;-0.30;99.90
37646;DHT22;23489;49.600;6.138;2023-03-01T00:33:09;-0.40;99.90
37646;DHT22;23489;49.600;6.138;2023-03-01T00:35:35;-0.40;99.90
37646;DHT22;23489;49.600;6.138;2023-03-01T00:38:01;-0.40;99.90
37646;DHT22;23489;49.600;6.138;2023-03-01T00:40:28;-0.40;99.90
37646;DHT22;23489;49.600;6.138;2023-03-01T00:42:54;-0.50;99.90
37646;DHT22;23489;49.600;6.138;2023-03-01T00:45:21;-0.50;99.90
37646;DHT22;23489;49.600;6.138;2023-03-01T00:47:48;-0.50;99.90
37646;DHT22;23489;49.600;6.138;2023-03-01T00:50:14;-0.50;99.90
37646;DHT22;23489;49.600;6.138;2023-03-01T00:52:40;-0.50;99.90
37646;DHT22;23489;49.600;6.138;2023-03-01T00:55:06;-0.50;99.90
37646;DHT22;23489;49.600;6.138;2023-03-01T00:57:33;-0.50;99.90
37646;DHT22;23489;49.600;6.138;2023-03-01T00:59:59;-0.50;99.90
37646;DHT22;23489;49.600;6.138;2023-03-01T01:02:25;-0.60;99.90
37646;DHT22;23489;49.600;6.138;2023-03-01T01:04:50;-0.60;99.90
37646;DHT22;23489;49.600;6.138;2023-03-01T01:07:17;-0.60;99.90
37646;DHT22;23489;49.600;6.138;2023-03-01T01:09:43;-0.60;99.90
37646;DHT22;23489;49.600;6.138;2023-03-01T01:12:08;-0.60;99.90
37646;DHT22;23489;49.600;6.138;2023-03-01T01:14:34;-0.60;99.90
37646;DHT22;23489;49.600;6.138;2023-03-01T01:17:00;-0.60;99.90
37646;DHT22;23489;49.600;6.138;2023-03-01T01:19:26;-0.60;99.90
37646;DHT22;23489;49.600;6.138;2023-03-01T01:21:52;-0.60;99.90
37646;DHT22;23489;49.600;6.138;2023-03-01T01:24:18;-0.70;99.90
37646;DHT22;23489;49.600;6.138;2023-03-01T01:26:45;-0.70;99.90
37646;DHT22;23489;49.600;6.138;2023-03-01T01:29:12;-0.70;99.90
37646;DHT22;23489;49.600;6.138;2023-03-01T01:31:39;-0.80;99.90
37646;DHT22;23489;49.600;6.138;2023-03-01T01:34:07;-0.80;99.90
37646;DHT22;23489;49.600;6.138;2023-03-01T01:36:34;-0.80;99.90
37646;DHT22;23489;49.600;6.138;2023-03-01T01:39:00;-0.80;99.90
37646;DHT22;23489;49.600;6.138;2023-03-01T01:41:28;-0.80;99.90
37646;DHT22;23489;49.600;6.138;2023-03-01T01:47:15;-0.90;99.90
37646;DHT22;23489;49.600;6.138;2023-03-01T01:49:49;-0.90;99.90
37646;DHT22;23489;49.600;6.138;2023-03-01T01:57:33;-0.90;99.90
37646;DHT22;23489;49.600;6.138;2023-03-01T02:00:05;-0.90;99.90
37646;DHT22;23489;49.600;6.138;2023-03-01T02:02:39;-0.90;99.90
37646;DHT22;23489;49.600;6.138;2023-03-01T02:05:15;-1.00;99.90
37646;DHT22;23489;49.600;6.138;2023-03-01T02:07:43;-1.00;99.90
37646;DHT22;23489;49.600;6.138;2023-03-01T02:10:09;-1.00;99.90
37646;DHT22;23489;49.600;6.138;2023-03-01T02:12:36;-1.00;99.90
37646;DHT22;23489;49.600;6.138;2023-03-01T02:15:02;-1.00;99.90
37646;DHT22;23489;49.600;6.138;2023-03-01T02:17:28;-1.00;99.90
37646;DHT22;23489;49.600;6.138;2023-03-01T02:22:33;-1.10;99.90
37646;DHT22;23489;49.600;6.138;2023-03-01T02:30:41;-1.10;99.90
37646;DHT22;23489;49.600;6.138;2023-03-01T02:33:28;-1.10;99.90
37646;DHT22;23489;49.600;6.138;2023-03-01T02:36:00;-1.20;99.90
37646;DHT22;23489;49.600;6.138;2023-03-01T02:38:26;-1.20;99.90
37646;DHT22;23489;49.600;6.138;2023-03-01T02:40:54;-1.20;99.90
37646;DHT22;23489;49.600;6.138;2023-03-01T02:43:23;-1.20;99.90
37646;DHT22;23489;49.600;6.138;2023-03-01T02:45:52;-1.30;99.90
37646;DHT22;23489;49.600;6.138;2023-03-01T02:48:19;-1.30;99.90
37646;DHT22;23489;49.600;6.138;2023-03-01T02:53:48;-1.30;99.90
37646;DHT22;23489;49.600;6.138;2023-03-01T02:56:18;-1.40;99.90
37646;DHT22;23489;49.600;6.138;2023-03-01T02:58:44;-1.40;99.90
37646;DHT22;23489;49.600;6.138;2023-03-01T03:01:12;-1.40;99.90
37646;DHT22;23489;49.600;6.138;2023-03-01T03:03:40;-1.40;99.90
37646;DHT22;23489;49.600;6.138;2023-03-01T03:06:07;-1.40;99.90
37646;DHT22;23489;49.600;6.138;2023-03-01T03:08:33;-1.50;99.90
37646;DHT22;23489;49.600;6.138;2023-03-01T03:10:58;-1.50;99.90
37646;DHT22;23489;49.600;6.138;2023-03-01T03:13:25;-1.50;99.90
37646;DHT22;23489;49.600;6.138;2023-03-01T03:15:56;-1.50;99.90
37646;DHT22;23489;49.600;6.138;2023-03-01T03:18:22;-1.50;99.90
37646;DHT22;23489;49.600;6.138;2023-03-01T03:20:51;-1.50;99.90
37646;DHT22;23489;49.600;6.138;2023-03-01T03:23:21;-1.50;99.90
37646;DHT22;23489;49.600;6.138;2023-03-01T03:25:50;-1.50;99.90
37646;DHT22;23489;49.600;6.138;2023-03-01T03:28:17;-1.50;99.90
37646;DHT22;23489;49.600;6.138;2023-03-01T03:30:43;-1.40;99.90
37646;DHT22;23489;49.600;6.138;2023-03-01T03:33:12;-1.40;99.90
37646;DHT22;23489;49.600;6.138;2023-03-01T03:35:45;-1.50;99.90
37646;DHT22;23489;49.600;6.138;2023-03-01T03:38:13;-1.40;99.90
37646;DHT22;23489;49.600;6.138;2023-03-01T03:40:47;-1.40;99.90
37646;DHT22;23489;49.600;6.138;2023-03-01T03:43:15;-1.40;99.90
37646;DHT22;23489;49.600;6.138;2023-03-01T03:45:43;-1.50;99.90
37646;DHT22;23489;49.600;6.138;2023-03-01T03:48:09;-1.40;99.90
37646;DHT22;23489;49.600;6.138;2023-03-01T03:50:36;-1.50;99.90
37646;DHT22;23489;49.600;6.138;2023-03-01T03:53:04;-1.40;99.90
37646;DHT22;23489;49.600;6.138;2023-03-01T03:55:30;-1.40;99.90
37646;DHT22;23489;49.600;6.138;2023-03-01T03:58:01;-1.40;99.90
37646;DHT22;23489;49.600;6.138;2023-03-01T04:00:34;-1.40;99.90
37646;DHT22;23489;49.600;6.138;2023-03-01T04:03:00;-1.50;99.90
37646;DHT22;23489;49.600;6.138;2023-03-01T04:05:26;-1.40;99.90
37646;DHT22;23489;49.600;6.138;2023-03-01T04:07:52;-1.50;99.90
37646;DHT22;23489;49.600;6.138;2023-03-01T04:10:31;-1.50;99.90
37646;DHT22;23489;49.600;6.138;2023-03-01T04:12:58;-1.50;99.90
37646;DHT22;23489;49.600;6.138;2023-03-01T04:15:26;-1.50;99.90
37646;DHT22;23489;49.600;6.138;2023-03-01T04:17:53;-1.50;99.90
37646;DHT22;23489;49.600;6.138;2023-03-01T04:20:21;-1.50;99.90
37646;DHT22;23489;49.600;6.138;2023-03-01T04:22:51;-1.60;99.90
37646;DHT22;23489;49.600;6.138;2023-03-01T04:25:17;-1.50;99.90
37646;DHT22;23489;49.600;6.138;2023-03-01T04:27:42;-1.60;99.90
37646;DHT22;23489;49.600;6.138;2023-03-01T04:30:08;-1.50;99.90
37646;DHT22;23489;49.600;6.138;2023-03-01T04:32:34;-1.60;99.90
37646;DHT22;23489;49.600;6.138;2023-03-01T04:35:00;-1.50;99.90
37646;DHT22;23489;49.600;6.138;2023-03-01T04:37:26;-1.60;99.90
37646;DHT22;23489;49.600;6.138;2023-03-01T04:39:52;-1.60;99.90
37646;DHT22;23489;49.600;6.138;2023-03-01T04:42:18;-1.60;99.90
37646;DHT22;23489;49.600;6.138;2023-03-01T04:44:45;-1.60;99.90
37646;DHT22;23489;49.600;6.138;2023-03-01T04:47:12;-1.60;99.90
37646;DHT22;23489;49.600;6.138;2023-03-01T04:49:38;-1.60;99.90
37646;DHT22;23489;49.600;6.138;2023-03-01T04:52:04;-1.60;99.90
37646;DHT22;23489;49.600;6.138;2023-03-01T04:54:30;-1.60;99.90
37646;DHT22;23489;49.600;6.138;2023-03-01T04:56:57;-1.60;99.90
37646;DHT22;23489;49.600;6.138;2023-03-01T04:59:23;-1.60;99.90
37646;DHT22;23489;49.600;6.138;2023-03-01T05:01:50;-1.60;99.90
37646;DHT22;23489;49.600;6.138;2023-03-01T05:04:15;-1.70;99.90
37646;DHT22;23489;49.600;6.138;2023-03-01T05:06:41;-1.70;99.90
37646;DHT22;23489;49.600;6.138;2023-03-01T05:09:07;-1.70;99.90
37646;DHT22;23489;49.600;6.138;2023-03-01T05:11:33;-1.70;99.90
37646;DHT22;23489;49.600;6.138;2023-03-01T05:14:02;-1.70;99.90
37646;DHT22;23489;49.600;6.138;2023-03-01T05:16:28;-1.60;99.90
37646;DHT22;23489;49.600;6.138;2023-03-01T05:18:53;-1.60;99.90
37646;DHT22;23489;49.600;6.138;2023-03-01T05:21:21;-1.70;99.90
37646;DHT22;23489;49.600;6.138;2023-03-01T05:23:47;-1.60;99.90
37646;DHT22;23489;49.600;6.138;2023-03-01T05:26:13;-1.60;99.90
37646;DHT22;23489;49.600;6.138;2023-03-01T05:28:39;-1.60;99.90
37646;DHT22;23489;49.600;6.138;2023-03-01T05:31:05;-1.60;99.90
37646;DHT22;23489;49.600;6.138;2023-03-01T05:33:38;-1.60;99.90
37646;DHT22;23489;49.600;6.138;2023-03-01T05:36:05;-1.70;99.90
37646;DHT22;23489;49.600;6.138;2023-03-01T05:38:31;-1.70;99.90
37646;DHT22;23489;49.600;6.138;2023-03-01T05:40:57;-1.70;99.90
37646;DHT22;23489;49.600;6.138;2023-03-01T05:43:22;-1.60;99.90
37646;DHT22;23489;49.600;6.138;2023-03-01T05:45:48;-1.60;99.90
37646;DHT22;23489;49.600;6.138;2023-03-01T05:48:14;-1.60;99.90
37646;DHT22;23489;49.600;6.138;2023-03-01T05:50:42;-1.60;99.90
37646;DHT22;23489;49.600;6.138;2023-03-01T05:53:17;-1.60;99.90
37646;DHT22;23489;49.600;6.138;2023-03-01T05:55:44;-1.60;99.90
37646;DHT22;23489;49.600;6.138;2023-03-01T05:58:14;-1.60;99.90
37646;DHT22;23489;49.600;6.138;2023-03-01T06:00:40;-1.60;99.90
37646;DHT22;23489;49.600;6.138;2023-03-01T06:03:06;-1.60;99.90
37646;DHT22;23489;49.600;6.138;2023-03-01T06:05:32;-1.60;99.90
37646;DHT22;23489;49.600;6.138;2023-03-01T06:08:01;-1.60;99.90
37646;DHT22;23489;49.600;6.138;2023-03-01T06:10:28;-1.60;99.90
37646;DHT22;23489;49.600;6.138;2023-03-01T06:12:54;-1.50;99.90
37646;DHT22;23489;49.600;6.138;2023-03-01T06:15:20;-1.50;99.90
37646;DHT22;23489;49.600;6.138;2023-03-01T06:17:46;-1.50;99.90
37646;DHT22;23489;49.600;6.138;2023-03-01T06:22:38;-1.50;99.90
37646;DHT22;23489;49.600;6.138;2023-03-01T06:25:04;-1.50;99.90
37646;DHT22;23489;49.600;6.138;2023-03-01T06:27:30;-1.50;99.90
37646;DHT22;23489;49.600;6.138;2023-03-01T06:29:56;-1.40;99.90
37646;DHT22;23489;49.600;6.138;2023-03-01T06:32:21;-1.50;99.90
37646;DHT22;23489;49.600;6.138;2023-03-01T06:34:47;-1.40;99.90
37646;DHT22;23489;49.600;6.138;2023-03-01T06:37:12;-1.40;99.90
37646;DHT22;23489;49.600;6.138;2023-03-01T06:39:38;-1.40;99.90
37646;DHT22;23489;49.600;6.138;2023-03-01T06:42:04;-1.40;99.90
37646;DHT22;23489;49.600;6.138;2023-03-01T06:44:30;-1.30;99.90
37646;DHT22;23489;49.600;6.138;2023-03-01T06:46:56;-1.30;99.90
37646;DHT22;23489;49.600;6.138;2023-03-01T06:49:22;-1.30;99.90
37646;DHT22;23489;49.600;6.138;2023-03-01T06:51:47;-1.30;99.90
37646;DHT22;23489;49.600;6.138;2023-03-01T06:54:13;-1.30;99.90
37646;DHT22;23489;49.600;6.138;2023-03-01T06:56:39;-1.20;99.90
37646;DHT22;23489;49.600;6.138;2023-03-01T06:59:05;-1.20;99.90
37646;DHT22;23489;49.600;6.138;2023-03-01T07:01:30;-1.20;99.90
37646;DHT22;23489;49.600;6.138;2023-03-01T07:03:56;-1.10;99.90
37646;DHT22;23489;49.600;6.138;2023-03-01T07:06:23;-1.10;99.90
37646;DHT22;23489;49.600;6.138;2023-03-01T07:08:49;-1.00;99.90
37646;DHT22;23489;49.600;6.138;2023-03-01T07:11:15;-1.00;99.90
37646;DHT22;23489;49.600;6.138;2023-03-01T07:13:41;-1.00;99.90
37646;DHT22;23489;49.600;6.138;2023-03-01T07:16:07;-1.00;99.90
37646;DHT22;23489;49.600;6.138;2023-03-01T07:18:32;-0.90;99.90
37646;DHT22;23489;49.600;6.138;2023-03-01T07:20:58;-0.90;99.90
37646;DHT22;23489;49.600;6.138;2023-03-01T07:23:23;-0.80;99.90
37646;DHT22;23489;49.600;6.138;2023-03-01T07:25:55;-0.80;99.90
37646;DHT22;23489;49.600;6.138;2023-03-01T07:28:23;-0.80;99.90
37646;DHT22;23489;49.600;6.138;2023-03-01T07:30:48;-0.70;99.90
37646;DHT22;23489;49.600;6.138;2023-03-01T07:33:14;-0.60;99.90
37646;DHT22;23489;49.600;6.138;2023-03-01T07:35:40;-0.60;99.90
37646;DHT22;23489;49.600;6.138;2023-03-01T07:38:05;-0.50;99.90
37646;DHT22;23489;49.600;6.138;2023-03-01T07:40:31;-0.40;99.90
37646;DHT22;23489;49.600;6.138;2023-03-01T07:42:57;-0.30;99.90
37646;DHT22;23489;49.600;6.138;2023-03-01T07:45:24;-0.10;99.90
37646;DHT22;23489;49.600;6.138;2023-03-01T07:47:51;0.10;99.90
37646;DHT22;23489;49.600;6.138;2023-03-01T07:50:17;0.30;99.90
37646;DHT22;23489;49.600;6.138;2023-03-01T07:52:45;0.60;99.90
37646;DHT22;23489;49.600;6.138;2023-03-01T07:55:11;1.00;99.90
37646;DHT22;23489;49.600;6.138;2023-03-01T07:57:36;1.60;99.90
37646;DHT22;23489;49.600;6.138;2023-03-01T08:00:02;2.10;99.90
37646;DHT22;23489;49.600;6.138;2023-03-01T08:02:37;2.60;99.90
37646;DHT22;23489;49.600;6.138;2023-03-01T08:05:04;3.50;99.90
37646;DHT22;23489;49.600;6.138;2023-03-01T08:07:29;4.30;99.90
37646;DHT22;23489;49.600;6.138;2023-03-01T08:09:55;4.90;99.90
37646;DHT22;23489;49.600;6.138;2023-03-01T08:12:20;5.50;99.90
37646;DHT22;23489;49.600;6.138;2023-03-01T08:14:46;5.80;99.00
37646;DHT22;23489;49.600;6.138;2023-03-01T08:17:14;5.90;98.80
37646;DHT22;23489;49.600;6.138;2023-03-01T08:19:39;6.40;97.20
37646;DHT22;23489;49.600;6.138;2023-03-01T08:22:05;6.50;96.10
37646;DHT22;23489;49.600;6.138;2023-03-01T08:24:31;6.90;95.30
37646;DHT22;23489;49.600;6.138;2023-03-01T08:26:57;7.00;94.50
37646;DHT22;23489;49.600;6.138;2023-03-01T08:29:22;6.50;94.60
37646;DHT22;23489;49.600;6.138;2023-03-01T08:31:50;6.40;95.00
37646;DHT22;23489;49.600;6.138;2023-03-01T08:34:18;6.20;95.00
37646;DHT22;23489;49.600;6.138;2023-03-01T08:36:45;5.90;95.40
37646;DHT22;23489;49.600;6.138;2023-03-01T08:39:16;6.10;95.60
37646;DHT22;23489;49.600;6.138;2023-03-01T08:41:42;6.20;94.90
37646;DHT22;23489;49.600;6.138;2023-03-01T08:44:10;6.20;94.90
37646;DHT22;23489;49.600;6.138;2023-03-01T08:46:39;6.40;94.60
37646;DHT22;23489;49.600;6.138;2023-03-01T08:49:27;6.30;94.60
37646;DHT22;23489;49.600;6.138;2023-03-01T08:51:52;6.50;94.50
37646;DHT22;23489;49.600;6.138;2023-03-01T08:54:20;6.30;94.00
37646;DHT22;23489;49.600;6.138;2023-03-01T08:56:47;6.20;94.40
37646;DHT22;23489;49.600;6.138;2023-03-01T08:59:14;6.00;94.70
37646;DHT22;23489;49.600;6.138;2023-03-01T09:01:40;6.10;94.70
37646;DHT22;23489;49.600;6.138;2023-03-01T09:04:09;6.20;94.90
37646;DHT22;23489;49.600;6.138;2023-03-01T09:06:35;6.60;94.10
37646;DHT22;23489;49.600;6.138;2023-03-01T09:09:02;6.60;93.80
37646;DHT22;23489;49.600;6.138;2023-03-01T09:11:29;6.90;93.50
37646;DHT22;23489;49.600;6.138;2023-03-01T09:13:55;6.90;92.90
37646;DHT22;23489;49.600;6.138;2023-03-01T09:16:22;6.80;93.00
37646;DHT22;23489;49.600;6.138;2023-03-01T09:18:53;6.50;93.10
37646;DHT22;23489;49.600;6.138;2023-03-01T09:21:20;5.90;93.50
37646;DHT22;23489;49.600;6.138;2023-03-01T09:23:48;5.60;94.00
37646;DHT22;23489;49.600;6.138;2023-03-01T09:26:20;5.20;94.40
37646;DHT22;23489;49.600;6.138;2023-03-01T09:28:49;5.30;94.70
37646;DHT22;23489;49.600;6.138;2023-03-01T09:31:17;5.50;94.80
37646;DHT22;23489;49.600;6.138;2023-03-01T09:33:46;5.80;94.40
37646;DHT22;23489;49.600;6.138;2023-03-01T09:36:14;6.20;93.90
37646;DHT22;23489;49.600;6.138;2023-03-01T09:38:41;6.60;93.40
37646;DHT22;23489;49.600;6.138;2023-03-01T09:43:47;7.70;91.70
37646;DHT22;23489;49.600;6.138;2023-03-01T09:46:14;7.60;90.80
37646;DHT22;23489;49.600;6.138;2023-03-01T09:48:52;7.50;90.70
37646;DHT22;23489;49.600;6.138;2023-03-01T09:51:29;8.00;90.20
37646;DHT22;23489;49.600;6.138;2023-03-01T09:53:55;8.20;89.50
37646;DHT22;23489;49.600;6.138;2023-03-01T09:56:41;8.00;89.00
37646;DHT22;23489;49.600;6.138;2023-03-01T10:04:47;9.40;83.20
37646;DHT22;23489;49.600;6.138;2023-03-01T10:09:55;9.50;82.50
37646;DHT22;23489;49.600;6.138;2023-03-01T10:12:35;9.40;82.10
37646;DHT22;23489;49.600;6.138;2023-03-01T10:15:16;9.70;82.00
37646;DHT22;23489;49.600;6.138;2023-03-01T10:17:44;9.60;80.60
37646;DHT22;23489;49.600;6.138;2023-03-01T10:20:28;9.80;80.40
37646;DHT22;23489;49.600;6.138;2023-03-01T10:22:55;10.10;78.80
37646;DHT22;23489;49.600;6.138;2023-03-01T10:25:40;10.50;77.70
37646;DHT22;23489;49.600;6.138;2023-03-01T10:28:31;10.80;75.80
37646;DHT22;23489;49.600;6.138;2023-03-01T10:31:03;10.70;75.70
37646;DHT22;23489;49.600;6.138;2023-03-01T10:33:32;11.90;72.60
37646;DHT22;23489;49.600;6.138;2023-03-01T10:36:01;12.20;71.00
37646;DHT22;23489;49.600;6.138;2023-03-01T10:38:31;12.10;70.20
37646;DHT22;23489;49.600;6.138;2023-03-01T10:41:04;12.10;69.50
37646;DHT22;23489;49.600;6.138;2023-03-01T10:43:47;12.60;69.00
37646;DHT22;23489;49.600;6.138;2023-03-01T10:51:42;11.60;68.00
37646;DHT22;23489;49.600;6.138;2023-03-01T10:54:18;10.30;70.40
37646;DHT22;23489;49.600;6.138;2023-03-01T10:56:56;8.90;74.40
37646;DHT22;23489;49.600;6.138;2023-03-01T10:59:29;8.20;78.20
37646;DHT22;23489;49.600;6.138;2023-03-01T11:02:30;8.00;79.40
37646;DHT22;23489;49.600;6.138;2023-03-01T11:05:13;7.30;81.10
37646;DHT22;23489;49.600;6.138;2023-03-01T11:07:48;6.60;83.50
37646;DHT22;23489;49.600;6.138;2023-03-01T11:10:18;5.90;86.40
37646;DHT22;23489;49.600;6.138;2023-03-01T11:12:44;5.50;89.00
37646;DHT22;23489;49.600;6.138;2023-03-01T11:15:21;5.40;90.00
37646;DHT22;23489;49.600;6.138;2023-03-01T11:17:47;5.30;90.70
37646;DHT22;23489;49.600;6.138;2023-03-01T11:22:47;5.30;91.50
37646;DHT22;23489;49.600;6.138;2023-03-01T11:25:14;5.30;91.80
37646;DHT22;23489;49.600;6.138;2023-03-01T11:27:45;5.30;92.00
37646;DHT22;23489;49.600;6.138;2023-03-01T11:33:07;5.40;92.10
37646;DHT22;23489;49.600;6.138;2023-03-01T11:35:40;5.30;92.30
37646;DHT22;23489;49.600;6.138;2023-03-01T11:38:21;5.20;92.60
37646;DHT22;23489;49.600;6.138;2023-03-01T11:41:01;5.20;92.80
37646;DHT22;23489;49.600;6.138;2023-03-01T11:43:41;5.30;92.70
37646;DHT22;23489;49.600;6.138;2023-03-01T11:46:31;5.20;93.00
37646;DHT22;23489;49.600;6.138;2023-03-01T11:54:28;5.00;93.80
37646;DHT22;23489;49.600;6.138;2023-03-01T11:57:19;5.10;93.90
37646;DHT22;23489;49.600;6.138;2023-03-01T12:02:46;5.30;93.90
37646;DHT22;23489;49.600;6.138;2023-03-01T12:08:35;5.30;93.60
37646;DHT22;23489;49.600;6.138;2023-03-01T12:11:23;5.30;93.80
37646;DHT22;23489;49.600;6.138;2023-03-01T12:22:37;5.60;93.50
37646;DHT22;23489;49.600;6.138;2023-03-01T12:28:04;5.80;93.30
37646;DHT22;23489;49.600;6.138;2023-03-01T12:30:46;5.80;93.50
37646;DHT22;23489;49.600;6.138;2023-03-01T12:38:42;5.70;93.60
37646;DHT22;23489;49.600;6.138;2023-03-01T12:41:32;5.80;93.60
37646;DHT22;23489;49.600;6.138;2023-03-01T12:49:48;5.90;93.60
37646;DHT22;23489;49.600;6.138;2023-03-01T12:52:21;5.90;93.50
37646;DHT22;23489;49.600;6.138;2023-03-01T12:54:50;5.90;93.30
37646;DHT22;23489;49.600;6.138;2023-03-01T12:57:42;5.80;93.40
37646;DHT22;23489;49.600;6.138;2023-03-01T13:06:40;5.90;93.70
37646;DHT22;23489;49.600;6.138;2023-03-01T13:09:14;6.10;93.60
37646;DHT22;23489;49.600;6.138;2023-03-01T13:11:42;6.00;93.30
37646;DHT22;23489;49.600;6.138;2023-03-01T13:16:47;6.20;93.30
37646;DHT22;23489;49.600;6.138;2023-03-01T13:19:26;6.20;93.10
37646;DHT22;23489;49.600;6.138;2023-03-01T13:21:58;6.20;93.20
37646;DHT22;23489;49.600;6.138;2023-03-01T13:29:44;6.60;92.80
37646;DHT22;23489;49.600;6.138;2023-03-01T13:32:32;6.60;92.50
37646;DHT22;23489;49.600;6.138;2023-03-01T13:35:03;6.60;92.60
37646;DHT22;23489;49.600;6.138;2023-03-01T13:37:35;6.50;92.50
37646;DHT22;23489;49.600;6.138;2023-03-01T13:42:51;6.50;92.60
37646;DHT22;23489;49.600;6.138;2023-03-01T13:45:36;6.50;92.60
37646;DHT22;23489;49.600;6.138;2023-03-01T13:48:25;6.50;92.50
37646;DHT22;23489;49.600;6.138;2023-03-01T13:50:58;6.50;92.50
37646;DHT22;23489;49.600;6.138;2023-03-01T13:53:29;6.50;92.50
37646;DHT22;23489;49.600;6.138;2023-03-01T13:56:00;6.60;93.00
37646;DHT22;23489;49.600;6.138;2023-03-01T13:58:31;6.60;92.70
37646;DHT22;23489;49.600;6.138;2023-03-01T14:00:59;6.60;92.70
37646;DHT22;23489;49.600;6.138;2023-03-01T14:03:25;6.60;92.80
37646;DHT22;23489;49.600;6.138;2023-03-01T14:08:27;6.60;92.50
37646;DHT22;23489;49.600;6.138;2023-03-01T14:11:25;6.50;92.40
37646;DHT22;23489;49.600;6.138;2023-03-01T14:19:17;6.40;92.60
37646;DHT22;23489;49.600;6.138;2023-03-01T14:21:44;6.40;92.70
37646;DHT22;23489;49.600;6.138;2023-03-01T14:24:23;6.50;92.80
37646;DHT22;23489;49.600;6.138;2023-03-01T14:26:50;6.40;92.70
37646;DHT22;23489;49.600;6.138;2023-03-01T14:29:34;6.50;92.90
37646;DHT22;23489;49.600;6.138;2023-03-01T14:32:24;6.50;92.70
37646;DHT22;23489;49.600;6.138;2023-03-01T14:34:51;6.50;92.70
37646;DHT22;23489;49.600;6.138;2023-03-01T14:37:21;6.50;92.50
37646;DHT22;23489;49.600;6.138;2023-03-01T14:39:48;6.40;92.60
37646;DHT22;23489;49.600;6.138;2023-03-01T14:42:15;6.30;92.60
37646;DHT22;23489;49.600;6.138;2023-03-01T14:44:43;6.20;92.70
37646;DHT22;23489;49.600;6.138;2023-03-01T14:47:14;6.20;92.90
37646;DHT22;23489;49.600;6.138;2023-03-01T14:49:41;6.20;93.10
37646;DHT22;23489;49.600;6.138;2023-03-01T14:52:18;6.30;93.50
37646;DHT22;23489;49.600;6.138;2023-03-01T14:54:48;6.30;93.30
37646;DHT22;23489;49.600;6.138;2023-03-01T14:57:16;6.40;93.20
37646;DHT22;23489;49.600;6.138;2023-03-01T14:59:43;6.40;92.90
37646;DHT22;23489;49.600;6.138;2023-03-01T15:02:15;6.40;93.00
37646;DHT22;23489;49.600;6.138;2023-03-01T15:04:58;6.40;93.30
37646;DHT22;23489;49.600;6.138;2023-03-01T15:07:35;6.40;93.20
37646;DHT22;23489;49.600;6.138;2023-03-01T15:10:04;6.40;93.10
37646;DHT22;23489;49.600;6.138;2023-03-01T15:14:56;6.40;93.20
37646;DHT22;23489;49.600;6.138;2023-03-01T15:17:38;6.40;93.40
37646;DHT22;23489;49.600;6.138;2023-03-01T15:20:14;6.40;93.70
37646;DHT22;23489;49.600;6.138;2023-03-01T15:22:44;6.40;93.30
37646;DHT22;23489;49.600;6.138;2023-03-01T15:25:18;6.40;93.20
37646;DHT22;23489;49.600;6.138;2023-03-01T15:27:48;6.30;93.40
37646;DHT22;23489;49.600;6.138;2023-03-01T15:30:54;6.20;93.40
37646;DHT22;23489;49.600;6.138;2023-03-01T15:36:02;6.20;94.10
37646;DHT22;23489;49.600;6.138;2023-03-01T15:38:52;6.20;93.80
37646;DHT22;23489;49.600;6.138;2023-03-01T15:41:37;6.20;93.70
37646;DHT22;23489;49.600;6.138;2023-03-01T15:44:17;6.10;93.90
37646;DHT22;23489;49.600;6.138;2023-03-01T15:46:47;6.10;93.70
37646;DHT22;23489;49.600;6.138;2023-03-01T15:49:35;6.10;93.60
37646;DHT22;23489;49.600;6.138;2023-03-01T15:52:01;6.10;93.60
37646;DHT22;23489;49.600;6.138;2023-03-01T15:54:27;6.00;93.70
37646;DHT22;23489;49.600;6.138;2023-03-01T15:56:53;6.10;93.80
37646;DHT22;23489;49.600;6.138;2023-03-01T15:59:19;6.00;93.70
37646;DHT22;23489;49.600;6.138;2023-03-01T16:01:45;6.00;93.80
37646;DHT22;23489;49.600;6.138;2023-03-01T16:04:12;6.00;93.80
37646;DHT22;23489;49.600;6.138;2023-03-01T16:06:42;6.00;93.80
37646;DHT22;23489;49.600;6.138;2023-03-01T16:09:07;6.00;93.90
37646;DHT22;23489;49.600;6.138;2023-03-01T16:11:35;5.90;94.00
37646;DHT22;23489;49.600;6.138;2023-03-01T16:14:02;5.90;94.00
37646;DHT22;23489;49.600;6.138;2023-03-01T16:16:27;6.00;94.20
37646;DHT22;23489;49.600;6.138;2023-03-01T16:18:53;6.00;94.10
37646;DHT22;23489;49.600;6.138;2023-03-01T16:21:22;6.00;94.10
37646;DHT22;23489;49.600;6.138;2023-03-01T16:23:48;5.90;93.80
37646;DHT22;23489;49.600;6.138;2023-03-01T16:26:14;5.90;93.80
37646;DHT22;23489;49.600;6.138;2023-03-01T16:28:42;5.90;93.90
37646;DHT22;23489;49.600;6.138;2023-03-01T16:31:09;5.80;93.80
37646;DHT22;23489;49.600;6.138;2023-03-01T16:33:35;5.80;93.80
37646;DHT22;23489;49.600;6.138;2023-03-01T16:36:08;5.80;93.80
37646;DHT22;23489;49.600;6.138;2023-03-01T16:38:34;5.80;93.70
37646;DHT22;23489;49.600;6.138;2023-03-01T16:41:00;5.80;93.70
37646;DHT22;23489;49.600;6.138;2023-03-01T16:43:26;5.70;93.90
37646;DHT22;23489;49.600;6.138;2023-03-01T16:45:52;5.70;93.70
37646;DHT22;23489;49.600;6.138;2023-03-01T16:48:17;5.70;93.70
37646;DHT22;23489;49.600;6.138;2023-03-01T16:50:43;5.60;93.60
37646;DHT22;23489;49.600;6.138;2023-03-01T16:53:09;5.60;93.60
37646;DHT22;23489;49.600;6.138;2023-03-01T16:55:35;5.60;93.70
37646;DHT22;23489;49.600;6.138;2023-03-01T16:58:01;5.50;93.70
37646;DHT22;23489;49.600;6.138;2023-03-01T17:00:27;5.40;93.80
37646;DHT22;23489;49.600;6.138;2023-03-01T17:02:53;5.40;93.80
37646;DHT22;23489;49.600;6.138;2023-03-01T17:05:19;5.30;93.90
37646;DHT22;23489;49.600;6.138;2023-03-01T17:07:46;5.30;93.90
37646;DHT22;23489;49.600;6.138;2023-03-01T17:10:12;5.20;94.00
37646;DHT22;23489;49.600;6.138;2023-03-01T17:12:38;5.20;94.00
37646;DHT22;23489;49.600;6.138;2023-03-01T17:15:04;5.10;93.80
37646;DHT22;23489;49.600;6.138;2023-03-01T17:17:31;5.20;93.60
37646;DHT22;23489;49.600;6.138;2023-03-01T17:19:56;5.10;93.50
37646;DHT22;23489;49.600;6.138;2023-03-01T17:22:22;5.00;93.50
37646;DHT22;23489;49.600;6.138;2023-03-01T17:24:48;5.00;93.50
37646;DHT22;23489;49.600;6.138;2023-03-01T17:27:14;4.90;93.50
37646;DHT22;23489;49.600;6.138;2023-03-01T17:29:40;4.90;93.50
37646;DHT22;23489;49.600;6.138;2023-03-01T17:32:07;4.80;93.50
37646;DHT22;23489;49.600;6.138;2023-03-01T17:34:33;4.80;93.60
37646;DHT22;23489;49.600;6.138;2023-03-01T17:36:59;4.70;93.60
37646;DHT22;23489;49.600;6.138;2023-03-01T17:39:25;4.70;93.60
37646;DHT22;23489;49.600;6.138;2023-03-01T17:41:55;4.60;93.60